West Lafayette, IN

10:53 AM EDT on October 02, 2014 (GMT -0400)
Danville | Change Station
CLOSE
Current Station
Airport
Location: Danville,
Elevation: 696 ft
Nearby Weather Stations

Elev 696 ft 40.20 °N, 87.59 °W | Updated 18 minutes ago

Mostly Cloudy
Mostly Cloudy
68 °F
Feels Like 68 °F
N
14
Wind Variable Wind from South
Gusts 18 mph

Today
High -- | Low -- °F
--% Chance of Precip.
Yesterday
High -- | Low -- °F
Precip. -- in
7:45 AM 7:28 PM
First Quarter, 59% visible
Pressure 29.86 in
Visibility 7.0 miles
Clouds Mostly Cloudy 1200 ft
Dew Point 65 °F
Humidity 90%
Rainfall 1.34 in
Snow Depth Not available.
UV 2 out of 12
Pollen 4.50 out of 12
Air Quality Not available.
Flu Activity Not available.
METAR KDNV 021435Z AUTO 18012G16KT 7SM BKN012 20/18 A2986 RMK AO2 T01990183

More Conditions Fewer Conditions

Pressure 29.86 in
Visibility 7.0 miles
Clouds Mostly Cloudy 1200 ft
Dew Point 65 °F
Humidity 90%
Rainfall 1.34 in
Snow Depth Not available.
UV 2 out of 12
Pollen 4.50 out of 12
Air Quality Not available.
Flu Activity Not available.
METAR KDNV 021435Z AUTO 18012G16KT 7SM BKN012 20/18 A2986 RMK AO2 T01990183

More Conditions Fewer Conditions

10-Day Weather Forecast

Almanac

Astronomy

Oct. 02, 2014 Rise Set
Actual Time 7:45 AM EDT 7:28 PM EDT
Civil Twilight 7:18 AM EDT 7:55 PM EDT
Nautical Twilight 6:46 AM EDT 8:27 PM EDT
Astronomical Twilight 6:14 AM EDT 8:58 PM EDT
Moon 3:35 PM EDT 1:00 AM EDT
Length of Visible Light 12h 37m
Length of Day
11h 43m
Tomorrow will be 2m 38s shorter.
First Quarter, 59% of the Moon is Illuminated
Today
First Quarter
Oct 8
Full
Oct 15
Last Quarter
Oct 23
New
Oct 30
First Quarter

Today's Extremes

State Highs State Lows

Community

WunderPhotos

Upload Photos

1,758,257 photos uploaded!

WunderBlogs® & News

Nearby

Snow Depth

Station Depth Elevation
No new snow has been reported.

Earthquake Activity

City Distance Mag. Time & Date
No recent earthquake activity has been reported nearby.
Minimum magnitude displayed is 2.5.

Coastal Water Temperatures

Place Temperature
No Stations Reporting

Nearby Weather Stations